Time;durP1;ratioP1;P1;durP2;ratioP2;P2;SDS_P1;SDS_P2;PMS_P1;PMS_P2;Temp;Humidity;BMP_temperature;BMP_pressure;BME280_temperature;BME280_humidity;BME280_pressure;Samples;Min_cycle;Max_cycle;Signal;HPM_P1;HPM_P2
2021/09/24 00:00:31;;;;;;;7.30;5.97;;;16.30;99.90;;;;;;5026346;28;20514;-67
2021/09/24 00:02:57;;;;;;;7.40;6.60;;;16.30;99.90;;;;;;5025923;28;20501;-67
2021/09/24 00:05:23;;;;;;;7.33;6.63;;;16.30;99.90;;;;;;5008378;28;20427;-65
2021/09/24 00:07:52;;;;;;;6.90;5.80;;;16.30;99.90;;;;;;5007231;28;20431;-65
2021/09/24 00:10:19;;;;;;;6.30;5.70;;;16.20;99.90;;;;;;5026360;28;20420;-66
2021/09/24 00:12:45;;;;;;;6.27;5.13;;;16.20;99.90;;;;;;5006678;28;20909;-64
2021/09/24 00:15:15;;;;;;;7.40;5.60;;;16.10;99.90;;;;;;5025226;28;20471;-63
2021/09/24 00:17:41;;;;;;;7.70;5.87;;;16.30;99.90;;;;;;5026417;28;20457;-64
2021/09/24 00:20:11;;;;;;;5.93;5.40;;;16.30;99.90;;;;;;5007196;28;20434;-65
2021/09/24 00:22:37;;;;;;;6.47;5.77;;;16.30;99.90;;;;;;5026710;28;20948;-67
2021/09/24 00:25:07;;;;;;;10.43;6.13;;;16.30;99.90;;;;;;5021059;28;20546;-68
2021/09/24 00:27:33;;;;;;;7.70;6.30;;;16.30;99.90;;;;;;5025686;28;20531;-68
2021/09/24 00:29:58;;;;;;;7.70;6.10;;;16.50;99.90;;;;;;5026529;28;20832;-67
2021/09/24 00:32:24;;;;;;;9.23;5.93;;;16.70;99.90;;;;;;5025163;28;20470;-67
2021/09/24 00:34:50;;;;;;;8.20;5.93;;;16.50;99.90;;;;;;5024888;28;20715;-67
2021/09/24 00:37:16;;;;;;;7.57;6.80;;;16.50;99.90;;;;;;5024338;28;20227;-67
2021/09/24 00:39:42;;;;;;;8.77;5.90;;;16.50;99.90;;;;;;5023795;28;20462;-69
2021/09/24 00:42:11;;;;;;;7.20;6.47;;;16.30;99.90;;;;;;5025828;28;20210;-69
2021/09/24 00:44:55;;;;;;;7.10;5.90;;;16.40;99.90;;;;;;5007109;28;20898;-68
2021/09/24 00:47:21;;;;;;;6.90;6.20;;;16.60;99.90;;;;;;5022039;28;20449;-67
2021/09/24 00:49:50;;;;;;;6.77;5.90;;;16.70;99.90;;;;;;5023922;28;20428;-68
2021/09/24 00:52:20;;;;;;;6.20;5.60;;;16.70;99.90;;;;;;5024101;28;20526;-71
2021/09/24 00:54:48;;;;;;;6.07;5.43;;;16.70;99.90;;;;;;5005679;28;20482;-67
2021/09/24 00:57:15;;;;;;;7.60;6.80;;;16.70;99.90;;;;;;5025442;28;20525;-69
2021/09/24 00:59:40;;;;;;;6.57;5.53;;;16.60;99.90;;;;;;5023890;28;21148;-68
2021/09/24 01:02:06;;;;;;;10.63;6.00;;;16.50;99.90;;;;;;5006794;28;20443;-69
2021/09/24 01:04:33;;;;;;;8.00;6.13;;;16.50;99.90;;;;;;5024027;28;20713;-67
2021/09/24 01:07:00;;;;;;;9.60;6.00;;;16.30;99.90;;;;;;5005750;28;20455;-68
2021/09/24 01:09:26;;;;;;;7.30;5.90;;;16.20;99.90;;;;;;5025076;28;20457;-69
2021/09/24 01:11:52;;;;;;;11.17;5.60;;;16.10;99.90;;;;;;5006421;28;20419;-69
2021/09/24 01:14:18;;;;;;;8.63;6.90;;;16.00;99.90;;;;;;5023093;28;20464;-69
2021/09/24 01:16:44;;;;;;;9.90;6.80;;;15.90;99.90;;;;;;5024362;28;20196;-69
2021/09/24 01:19:12;;;;;;;7.43;6.20;;;15.90;99.90;;;;;;5022059;28;21027;-69
2021/09/24 01:21:42;;;;;;;6.23;5.63;;;15.90;99.90;;;;;;5007434;28;20272;-70
2021/09/24 01:24:09;;;;;;;8.30;6.20;;;15.90;99.90;;;;;;5023361;28;20770;-69
2021/09/24 01:26:34;;;;;;;6.80;6.00;;;15.80;99.90;;;;;;5005387;28;20474;-69
2021/09/24 01:29:03;;;;;;;8.20;6.07;;;15.80;99.90;;;;;;5025909;28;20871;-70
2021/09/24 01:31:29;;;;;;;6.40;5.80;;;15.70;99.90;;;;;;5022595;28;20180;-70
2021/09/24 01:33:55;;;;;;;9.17;6.80;;;15.70;99.90;;;;;;5020900;28;20474;-68
2021/09/24 01:36:20;;;;;;;6.43;5.40;;;15.80;99.90;;;;;;5025650;28;20712;-68
2021/09/24 01:38:46;;;;;;;8.60;7.20;;;15.80;99.90;;;;;;5020746;28;20192;-68
2021/09/24 01:41:12;;;;;;;8.10;6.40;;;15.70;99.90;;;;;;5006985;28;20295;-67
2021/09/24 01:43:37;;;;;;;6.10;5.40;;;15.80;99.90;;;;;;5007539;28;20192;-68
2021/09/24 01:46:04;;;;;;;6.47;5.77;;;15.90;99.90;;;;;;5019581;28;20200;-67
2021/09/24 01:48:31;;;;;;;6.80;6.13;;;15.90;99.90;;;;;;5026353;28;20216;-64
2021/09/24 01:50:57;;;;;;;6.60;5.63;;;15.90;99.90;;;;;;5021036;28;20426;-65
2021/09/24 01:53:23;;;;;;;6.23;5.43;;;15.90;99.90;;;;;;5007623;28;20546;-69
2021/09/24 01:55:49;;;;;;;7.20;6.33;;;16.00;99.90;;;;;;5022328;28;20573;-69
2021/09/24 01:58:14;;;;;;;7.70;5.90;;;15.90;99.90;;;;;;5023164;28;20201;-69
2021/09/24 02:00:42;;;;;;;7.40;5.70;;;16.00;99.90;;;;;;5020764;28;20443;-66
2021/09/24 02:03:07;;;;;;;7.40;6.60;;;16.10;99.90;;;;;;5024255;28;20643;-66
2021/09/24 02:05:33;;;;;;;6.77;5.80;;;16.10;99.90;;;;;;5023313;28;20447;-65
2021/09/24 02:07:59;;;;;;;7.33;6.03;;;16.00;99.90;;;;;;5022619;28;20221;-65
2021/09/24 02:10:24;;;;;;;10.93;6.17;;;15.90;99.90;;;;;;5006940;28;20260;-64
2021/09/24 02:12:50;;;;;;;7.80;6.50;;;15.80;99.90;;;;;;5023602;28;20675;-70
2021/09/24 02:15:17;;;;;;;8.73;6.90;;;15.90;99.90;;;;;;5022734;28;20786;-69
2021/09/24 02:17:45;;;;;;;9.20;6.70;;;15.80;99.90;;;;;;5024696;28;20762;-68
2021/09/24 02:20:11;;;;;;;7.47;5.80;;;15.90;99.90;;;;;;5021618;28;20513;-67
2021/09/24 02:22:37;;;;;;;8.87;6.83;;;15.80;99.90;;;;;;5021134;28;20559;-68
2021/09/24 02:25:04;;;;;;;7.97;6.57;;;15.70;99.90;;;;;;5021970;28;20178;-67
2021/09/24 02:27:29;;;;;;;7.27;6.37;;;15.90;99.90;;;;;;5008038;28;20792;-64
2021/09/24 02:29:55;;;;;;;8.23;6.30;;;15.90;99.90;;;;;;5024222;28;20452;-65
2021/09/24 02:32:21;;;;;;;7.00;5.83;;;15.80;99.90;;;;;;5023048;28;20188;-68
2021/09/24 02:34:46;;;;;;;7.80;7.00;;;15.80;99.90;;;;;;5006180;28;20664;-68
2021/09/24 02:37:12;;;;;;;8.17;6.80;;;15.70;99.90;;;;;;5007161;28;20212;-68
2021/09/24 02:40:09;;;;;;;11.23;6.63;;;15.70;99.90;;;;;;5019956;28;20208;-68
2021/09/24 02:42:35;;;;;;;9.20;6.73;;;15.60;99.90;;;;;;5023098;28;20192;-64
2021/09/24 02:45:01;;;;;;;7.60;6.40;;;15.60;99.90;;;;;;5007078;28;20660;-64
2021/09/24 02:47:26;;;;;;;8.90;6.90;;;15.60;99.90;;;;;;5022368;28;20463;-68
2021/09/24 02:49:52;;;;;;;8.00;6.43;;;15.40;99.90;;;;;;5026883;28;20200;-67
2021/09/24 02:52:18;;;;;;;8.40;7.47;;;15.40;99.90;;;;;;4992849;28;20189;-65
2021/09/24 02:54:43;;;;;;;7.97;7.17;;;15.30;99.90;;;;;;5008191;28;20208;-68
2021/09/24 02:57:09;;;;;;;12.57;7.10;;;15.20;99.90;;;;;;5027982;28;20258;-67
2021/09/24 02:59:34;;;;;;;7.87;6.33;;;15.30;99.90;;;;;;5027016;28;20180;-64
2021/09/24 03:02:00;;;;;;;9.10;6.73;;;15.00;99.90;;;;;;5024885;28;20203;-65
2021/09/24 03:04:26;;;;;;;8.17;7.33;;;15.10;99.90;;;;;;5008480;28;20366;-64
2021/09/24 03:06:52;;;;;;;9.13;6.80;;;15.20;99.90;;;;;;5024529;28;20212;-64
2021/09/24 03:09:21;;;;;;;7.70;6.90;;;15.30;99.90;;;;;;5009694;28;20188;-68
2021/09/24 03:11:46;;;;;;;9.40;7.50;;;15.30;99.90;;;;;;5025412;28;20180;-68
2021/09/24 03:14:12;;;;;;;7.23;6.53;;;15.30;99.90;;;;;;5025307;28;20550;-68
2021/09/24 03:16:42;;;;;;;9.40;8.23;;;15.20;99.90;;;;;;5025719;28;20235;-68
2021/09/24 03:19:08;;;;;;;10.87;7.67;;;15.00;99.90;;;;;;5022456;28;20370;-67
2021/09/24 03:21:34;;;;;;;9.43;7.27;;;14.90;99.90;;;;;;5025769;28;20458;-64
2021/09/24 03:24:00;;;;;;;10.60;7.53;;;14.90;99.90;;;;;;5026613;28;20448;-63
2021/09/24 03:26:25;;;;;;;14.70;7.07;;;14.80;99.90;;;;;;5022693;28;20185;-63
2021/09/24 03:28:51;;;;;;;11.40;7.33;;;14.80;99.90;;;;;;5027221;28;20195;-68
2021/09/24 03:31:17;;;;;;;9.67;7.90;;;15.00;99.90;;;;;;5025616;28;20185;-68
2021/09/24 03:33:43;;;;;;;8.93;7.60;;;15.10;99.90;;;;;;5023452;28;20511;-68
2021/09/24 03:36:09;;;;;;;10.67;7.07;;;15.00;99.90;;;;;;5025450;28;20189;-68
2021/09/24 03:38:34;;;;;;;9.20;7.30;;;15.00;99.90;;;;;;5025222;28;20602;-68
2021/09/24 03:41:00;;;;;;;8.80;6.67;;;15.00;99.90;;;;;;5008453;28;20208;-69
2021/09/24 03:43:26;;;;;;;9.07;8.17;;;15.00;99.90;;;;;;5023480;28;20233;-69
2021/09/24 03:45:51;;;;;;;10.17;7.63;;;15.00;99.90;;;;;;5023864;28;20195;-68
2021/09/24 03:48:17;;;;;;;11.07;8.03;;;14.90;99.90;;;;;;5009931;28;20212;-67
2021/09/24 03:50:44;;;;;;;9.20;8.30;;;14.80;99.90;;;;;;5024293;28;20668;-68
2021/09/24 03:53:09;;;;;;;9.40;8.50;;;14.80;99.90;;;;;;5024004;28;20189;-65
2021/09/24 03:55:41;;;;;;;12.17;8.03;;;14.80;99.90;;;;;;5027125;28;20431;-64
2021/09/24 03:58:07;;;;;;;12.13;7.90;;;14.80;99.90;;;;;;5005908;28;20213;-65
2021/09/24 04:00:33;;;;;;;18.00;8.33;;;14.80;99.90;;;;;;5024700;28;20447;-67
2021/09/24 04:02:59;;;;;;;9.60;7.80;;;14.70;99.90;;;;;;5026480;28;20419;-63
2021/09/24 04:05:25;;;;;;;9.87;7.93;;;14.80;99.90;;;;;;5007183;28;20457;-63
2021/09/24 04:07:51;;;;;;;14.73;8.20;;;14.70;99.90;;;;;;5025912;28;20213;-64
2021/09/24 04:10:17;;;;;;;11.03;8.87;;;14.70;99.90;;;;;;5007949;28;20431;-64
2021/09/24 04:12:42;;;;;;;10.30;8.77;;;14.70;99.90;;;;;;5023278;28;20556;-64
2021/09/24 04:15:08;;;;;;;10.87;8.67;;;14.60;99.90;;;;;;5025514;28;20224;-70
2021/09/24 04:17:34;;;;;;;13.00;8.93;;;14.70;99.90;;;;;;5021860;28;20637;-68
2021/09/24 04:20:00;;;;;;;11.63;8.37;;;14.60;99.90;;;;;;5006465;28;20515;-68
2021/09/24 04:22:25;;;;;;;14.43;8.97;;;14.60;99.90;;;;;;5027594;28;20184;-67
2021/09/24 04:24:52;;;;;;;12.53;9.40;;;14.60;99.90;;;;;;5020788;28;20320;-67
2021/09/24 04:27:20;;;;;;;12.13;9.10;;;14.50;99.90;;;;;;5025218;28;20696;-65
2021/09/24 04:29:46;;;;;;;11.97;9.60;;;14.60;99.90;;;;;;5026089;28;20798;-65
2021/09/24 04:32:14;;;;;;;14.30;9.40;;;14.60;99.90;;;;;;5024065;28;20438;-63
2021/09/24 04:34:40;;;;;;;12.10;9.10;;;14.50;99.90;;;;;;5025768;28;20208;-63
2021/09/24 04:37:06;;;;;;;10.30;8.20;;;14.40;99.90;;;;;;5024015;28;20467;-63
2021/09/24 04:39:31;;;;;;;9.77;8.37;;;14.50;99.90;;;;;;5024273;28;20189;-63
2021/09/24 04:41:57;;;;;;;11.53;9.53;;;14.50;99.90;;;;;;5026301;28;20168;-64
2021/09/24 04:44:23;;;;;;;11.83;9.13;;;14.50;99.90;;;;;;5020896;28;20192;-64
2021/09/24 04:46:48;;;;;;;11.40;9.07;;;14.60;99.90;;;;;;5026502;28;20666;-67
2021/09/24 04:49:14;;;;;;;11.67;9.17;;;14.50;99.90;;;;;;5024522;28;20197;-68
2021/09/24 04:51:40;;;;;;;11.93;8.40;;;14.60;99.90;;;;;;5022969;28;20185;-64
2021/09/24 04:54:06;;;;;;;11.80;9.17;;;14.60;99.90;;;;;;5024612;28;20209;-64
2021/09/24 04:56:32;;;;;;;11.47;9.50;;;14.50;99.90;;;;;;5023516;28;20463;-65
2021/09/24 04:59:09;;;;;;;11.90;8.80;;;14.50;99.90;;;;;;5024314;28;20272;-64
2021/09/24 05:01:35;;;;;;;12.73;9.50;;;14.40;99.90;;;;;;5022604;28;20187;-64
2021/09/24 05:04:02;;;;;;;10.63;8.70;;;14.40;99.90;;;;;;5020529;28;20820;-64
2021/09/24 05:06:28;;;;;;;10.13;9.03;;;14.50;99.90;;;;;;5025984;28;20193;-64
2021/09/24 05:08:54;;;;;;;12.70;9.50;;;14.50;99.90;;;;;;5020917;28;20430;-67
2021/09/24 05:11:22;;;;;;;10.43;9.40;;;14.40;99.90;;;;;;5007739;28;20200;-64
2021/09/24 05:13:48;;;;;;;15.27;9.17;;;14.50;99.90;;;;;;5024837;28;20208;-64
2021/09/24 05:16:17;;;;;;;14.13;9.30;;;14.40;99.90;;;;;;5022755;28;20426;-64
2021/09/24 05:18:43;;;;;;;11.50;8.97;;;14.40;99.90;;;;;;4991432;28;20449;-63
2021/09/24 05:21:12;;;;;;;11.77;9.27;;;14.50;99.90;;;;;;5026158;28;20466;-64
2021/09/24 05:23:38;;;;;;;11.93;9.33;;;14.40;99.90;;;;;;5021742;28;20439;-64
2021/09/24 05:26:04;;;;;;;11.40;9.43;;;14.40;99.90;;;;;;5023380;28;20436;-64
2021/09/24 05:28:30;;;;;;;11.23;8.40;;;14.40;99.90;;;;;;5006101;28;20458;-70
2021/09/24 05:30:56;;;;;;;9.23;8.03;;;14.30;99.90;;;;;;5007249;28;20432;-69
2021/09/24 05:33:21;;;;;;;14.17;8.43;;;14.40;99.90;;;;;;5025503;28;20224;-69
2021/09/24 05:35:50;;;;;;;13.30;9.17;;;14.40;99.90;;;;;;5022622;28;20181;-69
2021/09/24 05:38:16;;;;;;;12.20;8.60;;;14.30;99.90;;;;;;5023226;28;20212;-69
2021/09/24 05:40:41;;;;;;;12.40;8.80;;;14.30;99.90;;;;;;5023959;28;20425;-69
2021/09/24 05:43:07;;;;;;;11.17;8.70;;;14.40;99.90;;;;;;5022972;28;20185;-69
2021/09/24 05:45:33;;;;;;;18.43;9.27;;;14.30;99.90;;;;;;5023844;28;20188;-68
2021/09/24 05:47:59;;;;;;;9.60;8.60;;;14.30;99.90;;;;;;5023924;28;20454;-64
2021/09/24 05:50:26;;;;;;;16.93;10.37;;;14.20;99.90;;;;;;5007783;28;20268;-67
2021/09/24 05:52:53;;;;;;;12.30;9.60;;;14.10;99.90;;;;;;5022712;28;20180;-68
2021/09/24 05:55:21;;;;;;;14.77;10.30;;;14.20;99.90;;;;;;5022797;28;20516;-67
2021/09/24 05:57:48;;;;;;;14.63;10.23;;;14.10;99.90;;;;;;5004092;28;20965;-68
2021/09/24 06:00:15;;;;;;;12.03;9.10;;;14.10;99.90;;;;;;5024070;28;20888;-67
2021/09/24 06:02:45;;;;;;;14.20;10.37;;;14.10;99.90;;;;;;5021904;28;21142;-64
2021/09/24 06:05:12;;;;;;;10.50;9.27;;;14.10;99.90;;;;;;5006706;28;20839;-65
2021/09/24 06:07:43;;;;;;;11.80;9.50;;;14.10;99.90;;;;;;5024957;28;20443;-65
2021/09/24 06:10:10;;;;;;;13.33;10.67;;;14.00;99.90;;;;;;5023204;28;20458;-67
2021/09/24 06:12:36;;;;;;;12.53;9.83;;;14.00;99.90;;;;;;5010222;28;20451;-65
2021/09/24 06:15:03;;;;;;;13.00;9.90;;;14.00;99.90;;;;;;5021465;28;20501;-65
2021/09/24 06:17:30;;;;;;;12.57;10.13;;;13.90;99.90;;;;;;5004407;28;20885;-69
2021/09/24 06:19:56;;;;;;;12.10;9.93;;;13.90;99.90;;;;;;5021427;28;20474;-66
2021/09/24 06:22:24;;;;;;;11.73;9.70;;;14.00;99.90;;;;;;5023746;28;20864;-69
2021/09/24 06:24:49;;;;;;;11.30;9.67;;;14.00;99.90;;;;;;5008443;28;20819;-64
2021/09/24 06:27:15;;;;;;;13.00;10.13;;;14.10;99.90;;;;;;5027634;28;20434;-64
2021/09/24 06:29:47;;;;;;;11.97;9.70;;;14.30;99.90;;;;;;5026783;28;20426;-69
2021/09/24 06:32:14;;;;;;;11.70;9.60;;;14.30;99.90;;;;;;5010326;28;20422;-68
2021/09/24 06:34:43;;;;;;;11.30;9.37;;;14.40;99.90;;;;;;5025286;28;20466;-68
2021/09/24 06:37:08;;;;;;;11.77;9.20;;;14.40;99.90;;;;;;5022837;28;20451;-64
2021/09/24 06:39:34;;;;;;;15.03;9.47;;;14.40;99.90;;;;;;5025861;28;20444;-64
2021/09/24 06:42:00;;;;;;;13.00;9.23;;;14.40;99.90;;;;;;5026661;28;20412;-68
2021/09/24 06:44:26;;;;;;;12.60;9.10;;;14.40;99.90;;;;;;5027479;28;20199;-67
2021/09/24 06:46:52;;;;;;;11.60;8.97;;;14.40;99.90;;;;;;5028334;28;20445;-68
2021/09/24 06:49:22;;;;;;;13.00;9.73;;;14.40;99.90;;;;;;5025705;28;20455;-69
2021/09/24 06:51:49;;;;;;;11.40;9.83;;;14.40;99.90;;;;;;5009086;28;20199;-65
2021/09/24 06:54:14;;;;;;;14.53;10.40;;;14.40;99.90;;;;;;5026932;28;20475;-64
2021/09/24 06:56:40;;;;;;;12.30;10.70;;;14.50;99.90;;;;;;5023603;28;20819;-64
2021/09/24 06:59:06;;;;;;;13.90;10.27;;;14.50;99.90;;;;;;5027924;28;20189;-70
2021/09/24 07:01:31;;;;;;;11.43;9.63;;;14.50;99.90;;;;;;5026549;28;20192;-69
2021/09/24 07:03:57;;;;;;;10.20;8.83;;;14.50;99.90;;;;;;5008108;28;20185;-68
2021/09/24 07:06:23;;;;;;;14.27;10.63;;;14.60;99.90;;;;;;5026720;28;20472;-64
2021/09/24 07:08:48;;;;;;;14.00;11.13;;;14.60;99.90;;;;;;4992520;28;20279;-65
2021/09/24 07:11:14;;;;;;;13.00;10.93;;;14.60;99.90;;;;;;5009895;28;20188;-64
2021/09/24 07:13:39;;;;;;;13.40;10.10;;;14.60;99.90;;;;;;5008537;28;20254;-64
2021/09/24 07:16:06;;;;;;;15.90;10.63;;;14.60;99.90;;;;;;5023434;28;20176;-67
2021/09/24 07:18:32;;;;;;;26.73;10.50;;;14.70;99.90;;;;;;5009847;28;20212;-68
2021/09/24 07:20:58;;;;;;;14.53;10.70;;;14.80;99.90;;;;;;5024690;28;20960;-64
2021/09/24 07:23:23;;;;;;;13.60;11.27;;;14.80;99.90;;;;;;5005868;28;20439;-65
2021/09/24 07:25:50;;;;;;;13.10;10.90;;;14.90;99.90;;;;;;5027810;28;20224;-64
2021/09/24 07:28:17;;;;;;;14.83;10.87;;;15.00;99.90;;;;;;5007360;28;20201;-69
2021/09/24 07:30:43;;;;;;;17.60;12.57;;;15.00;99.90;;;;;;5023525;28;20527;-64
2021/09/24 07:33:10;;;;;;;13.63;11.13;;;15.00;99.90;;;;;;5012157;28;20807;-68
2021/09/24 07:35:35;;;;;;;17.53;11.53;;;15.10;99.90;;;;;;5026267;28;20443;-66
2021/09/24 07:38:02;;;;;;;15.23;12.00;;;15.10;99.90;;;;;;5027945;28;20448;-65
2021/09/24 07:40:28;;;;;;;15.20;11.00;;;15.20;99.90;;;;;;5027122;28;20494;-69
2021/09/24 07:42:55;;;;;;;14.17;11.67;;;15.20;99.90;;;;;;5026826;28;21423;-68
2021/09/24 07:45:22;;;;;;;14.77;10.47;;;15.30;99.90;;;;;;5026568;28;20430;-69
2021/09/24 07:47:48;;;;;;;13.63;10.50;;;15.40;99.90;;;;;;5023880;28;20557;-68
2021/09/24 07:50:14;;;;;;;17.30;11.30;;;15.40;99.90;;;;;;5027317;28;20492;-69
2021/09/24 07:52:41;;;;;;;15.67;11.43;;;15.50;99.90;;;;;;5025610;28;20415;-69
2021/09/24 07:55:12;;;;;;;14.03;11.70;;;15.60;99.90;;;;;;5005093;28;21020;-68
2021/09/24 07:57:40;;;;;;;17.60;10.30;;;15.60;99.90;;;;;;5025293;28;20479;-64
2021/09/24 08:00:07;;;;;;;14.57;11.30;;;15.70;99.90;;;;;;5025630;28;21035;-64
2021/09/24 08:02:32;;;;;;;13.60;10.50;;;15.70;99.90;;;;;;5024533;28;20550;-68
2021/09/24 08:04:58;;;;;;;14.37;11.13;;;15.80;99.90;;;;;;5029411;28;20463;-69
2021/09/24 08:07:24;;;;;;;14.47;12.60;;;15.90;99.90;;;;;;5023607;28;20628;-68
2021/09/24 08:09:50;;;;;;;14.03;11.47;;;15.90;99.90;;;;;;5008762;28;20184;-69
2021/09/24 08:12:16;;;;;;;17.93;12.27;;;16.00;99.90;;;;;;5022965;28;20442;-68
2021/09/24 08:14:42;;;;;;;14.03;11.27;;;16.00;99.90;;;;;;5022526;28;20345;-69
2021/09/24 08:17:11;;;;;;;12.63;10.77;;;16.00;99.90;;;;;;5025033;28;20539;-69
2021/09/24 08:19:38;;;;;;;15.40;11.40;;;16.10;99.90;;;;;;5023099;28;20192;-65
2021/09/24 08:22:07;;;;;;;11.30;10.10;;;16.10;99.90;;;;;;5026138;28;20825;-69
2021/09/24 08:24:35;;;;;;;11.37;9.63;;;16.20;99.90;;;;;;5011378;28;20424;-65
2021/09/24 08:27:01;;;;;;;11.83;9.60;;;16.20;99.90;;;;;;5025204;28;20455;-63
2021/09/24 08:29:27;;;;;;;10.90;9.00;;;16.40;99.90;;;;;;5025887;28;20989;-65
2021/09/24 08:31:52;;;;;;;10.30;9.20;;;16.50;99.90;;;;;;5007707;28;20483;-65
2021/09/24 08:34:18;;;;;;;12.83;9.50;;;16.50;99.90;;;;;;5006449;28;20299;-65
2021/09/24 08:36:44;;;;;;;11.03;8.93;;;16.60;99.90;;;;;;5025475;28;20552;-64
2021/09/24 08:39:11;;;;;;;13.23;10.17;;;16.60;99.90;;;;;;5025828;28;20275;-69
2021/09/24 08:41:37;;;;;;;10.97;8.90;;;16.80;99.90;;;;;;5024908;28;20180;-68
2021/09/24 08:44:03;;;;;;;12.60;9.73;;;16.80;99.90;;;;;;5026766;28;20419;-69
2021/09/24 08:46:32;;;;;;;13.40;9.50;;;17.00;99.90;;;;;;5022224;28;20442;-68
2021/09/24 08:48:58;;;;;;;10.50;8.70;;;17.00;99.90;;;;;;5025149;28;20435;-67
2021/09/24 08:51:23;;;;;;;10.87;9.40;;;17.10;99.90;;;;;;5008695;28;20420;-67
2021/09/24 08:53:49;;;;;;;12.53;9.83;;;17.10;99.90;;;;;;5006615;28;20491;-65
2021/09/24 08:56:18;;;;;;;11.27;9.17;;;17.10;99.90;;;;;;5025400;28;20212;-65
2021/09/24 08:58:43;;;;;;;9.83;8.83;;;17.10;99.90;;;;;;5023846;28;20194;-67
2021/09/24 09:01:09;;;;;;;12.43;9.30;;;17.20;99.90;;;;;;5023021;28;21013;-67
2021/09/24 09:03:43;;;;;;;16.80;9.30;;;17.20;99.90;;;;;;5025832;28;20199;-68
2021/09/24 09:06:11;;;;;;;11.57;9.37;;;17.30;99.90;;;;;;5023094;28;20196;-67
2021/09/24 09:08:39;;;;;;;12.37;9.43;;;17.30;99.90;;;;;;5006929;28;20490;-67
2021/09/24 09:11:07;;;;;;;11.30;9.47;;;17.40;99.90;;;;;;5021830;28;20497;-65
2021/09/24 09:13:41;;;;;;;11.23;9.80;;;17.40;99.90;;;;;;5023715;28;20498;-69
2021/09/24 09:16:16;;;;;;;10.13;8.10;;;17.40;99.90;;;;;;5021982;28;20921;-69
2021/09/24 09:18:44;;;;;;;10.20;8.77;;;17.50;99.90;;;;;;5025064;28;20407;-64
2021/09/24 09:21:13;;;;;;;12.27;9.30;;;17.60;99.90;;;;;;5023074;28;20435;-64
2021/09/24 09:23:43;;;;;;;14.13;9.30;;;17.70;99.90;;;;;;5007285;28;20934;-64
2021/09/24 09:26:11;;;;;;;10.63;9.10;;;17.70;99.90;;;;;;5022753;28;20446;-65
2021/09/24 09:28:57;;;;;;;10.83;9.13;;;17.80;99.90;;;;;;5019846;28;20997;-65
2021/09/24 09:31:28;;;;;;;11.20;8.50;;;17.90;99.90;;;;;;5007092;28;20456;-65
2021/09/24 09:33:56;;;;;;;9.83;8.37;;;18.00;99.90;;;;;;5006369;28;20508;-64
2021/09/24 09:36:36;;;;;;;10.23;9.23;;;18.00;99.90;;;;;;5024195;28;20473;-65
2021/09/24 09:39:13;;;;;;;12.43;8.67;;;18.00;99.90;;;;;;5025106;28;20521;-64
2021/09/24 09:41:53;;;;;;;12.83;9.30;;;18.10;99.90;;;;;;5021931;28;20415;-69
2021/09/24 09:44:48;;;;;;;14.33;9.50;;;18.10;99.90;;;;;;5022221;28;20431;-68
2021/09/24 09:47:31;;;;;;;11.27;8.80;;;18.10;99.90;;;;;;5018926;28;20530;-68
2021/09/24 09:50:13;;;;;;;10.60;8.40;;;18.20;99.90;;;;;;5026371;28;20470;-65
2021/09/24 09:53:10;;;;;;;13.37;9.63;;;18.20;99.90;;;;;;5006247;28;20447;-66
2021/09/24 09:55:38;;;;;;;10.53;8.47;;;18.30;99.90;;;;;;5003049;28;20451;-66
2021/09/24 09:58:08;;;;;;;9.30;8.40;;;18.30;99.90;;;;;;5023851;28;20973;-65
2021/09/24 10:00:36;;;;;;;10.10;9.10;;;18.40;99.90;;;;;;5022970;28;20436;-69
2021/09/24 10:03:13;;;;;;;10.77;6.93;;;18.50;99.90;;;;;;5023176;28;20442;-69
2021/09/24 10:05:42;;;;;;;8.67;7.80;;;18.60;99.90;;;;;;5024586;28;20918;-69
2021/09/24 10:08:26;;;;;;;8.97;6.87;;;18.70;99.90;;;;;;5021620;28;20888;-65
2021/09/24 10:10:55;;;;;;;7.70;6.90;;;18.80;99.90;;;;;;5019974;28;20478;-69
2021/09/24 10:13:27;;;;;;;15.03;8.00;;;18.80;99.90;;;;;;5021294;28;20854;-69
2021/09/24 10:15:53;;;;;;;8.60;7.27;;;18.90;99.90;;;;;;5021271;28;20430;-65
2021/09/24 10:18:22;;;;;;;11.30;6.63;;;18.90;99.90;;;;;;5023820;28;20820;-66
2021/09/24 10:20:48;;;;;;;7.97;7.10;;;19.00;99.90;;;;;;5004217;28;20695;-66
2021/09/24 10:23:15;;;;;;;8.43;6.97;;;19.10;99.90;;;;;;5022155;28;20566;-69
2021/09/24 10:25:42;;;;;;;8.30;7.07;;;19.20;99.90;;;;;;5023205;28;20446;-69
2021/09/24 10:28:10;;;;;;;8.80;6.37;;;19.20;99.90;;;;;;5022722;28;20447;-65
2021/09/24 10:30:37;;;;;;;10.50;6.30;;;19.30;99.90;;;;;;5022017;28;20447;-68
2021/09/24 10:33:10;;;;;;;7.77;6.97;;;19.40;99.90;;;;;;4985803;28;20503;-67
2021/09/24 10:35:50;;;;;;;6.50;5.80;;;19.40;99.90;;;;;;5024494;28;20920;-68
2021/09/24 10:38:23;;;;;;;7.27;6.47;;;19.50;99.90;;;;;;5022042;28;20451;-66
2021/09/24 10:40:54;;;;;;;6.90;6.20;;;19.50;99.90;;;;;;5024278;28;20423;-65
2021/09/24 10:43:20;;;;;;;7.10;6.07;;;19.70;99.90;;;;;;5022913;28;20430;-65
2021/09/24 10:45:46;;;;;;;8.13;5.83;;;19.70;99.90;;;;;;5023364;28;20419;-65
2021/09/24 10:48:23;;;;;;;6.60;5.53;;;19.80;99.90;;;;;;5022893;28;20528;-64
2021/09/24 10:50:52;;;;;;;6.87;5.53;;;19.90;99.90;;;;;;5020615;28;20211;-65
2021/09/24 10:53:24;;;;;;;10.07;6.90;;;19.80;99.90;;;;;;5024488;28;20430;-65
2021/09/24 10:55:53;;;;;;;6.73;5.50;;;19.90;99.90;;;;;;5003725;28;20918;-66
2021/09/24 10:58:28;;;;;;;8.47;6.10;;;19.90;99.90;;;;;;5021253;28;20466;-66
2021/09/24 11:01:00;;;;;;;8.93;5.70;;;19.90;99.90;;;;;;5025356;28;20419;-66
2021/09/24 11:03:28;;;;;;;13.23;6.67;;;20.00;99.90;;;;;;5022672;28;20412;-68
2021/09/24 11:06:04;;;;;;;8.97;6.50;;;20.10;99.90;;;;;;5018667;28;20930;-65
2021/09/24 11:08:32;;;;;;;6.67;5.50;;;20.10;99.90;;;;;;5017829;28;20450;-65
2021/09/24 11:11:05;;;;;;;6.33;5.73;;;20.10;99.90;;;;;;5025105;28;20434;-69
2021/09/24 11:13:35;;;;;;;8.60;7.20;;;20.00;99.90;;;;;;5024961;28;20478;-69
2021/09/24 11:16:03;;;;;;;7.03;5.90;;;20.10;99.90;;;;;;5025875;28;20837;-69
2021/09/24 11:19:00;;;;;;;7.13;5.80;;;20.20;99.90;;;;;;5024160;28;20443;-69
2021/09/24 11:21:32;;;;;;;5.93;5.30;;;20.20;99.90;;;;;;5008731;28;20866;-69
2021/09/24 11:24:02;;;;;;;6.73;6.03;;;20.20;99.90;;;;;;5025210;28;20463;-69
2021/09/24 11:26:32;;;;;;;6.67;5.70;;;20.30;99.90;;;;;;5024738;28;20930;-69
2021/09/24 11:29:12;;;;;;;7.30;5.80;;;20.40;99.90;;;;;;5025013;28;20464;-69
2021/09/24 11:31:52;;;;;;;8.03;5.90;;;20.50;99.90;;;;;;5024441;28;20431;-69
2021/09/24 11:34:39;;;;;;;6.60;5.90;;;20.50;99.90;;;;;;5029007;28;20512;-70
2021/09/24 11:37:06;;;;;;;8.77;5.60;;;20.60;99.90;;;;;;5022905;28;20984;-69
2021/09/24 11:39:33;;;;;;;8.93;6.77;;;20.80;99.90;;;;;;5027389;28;20430;-65
2021/09/24 11:42:10;;;;;;;13.83;5.90;;;20.90;99.90;;;;;;5023264;28;20801;-64
2021/09/24 11:44:40;;;;;;;7.30;5.90;;;21.00;99.90;;;;;;5024729;28;20620;-67
2021/09/24 11:47:16;;;;;;;8.00;6.00;;;21.10;99.90;;;;;;5027394;28;20512;-70
2021/09/24 11:50:03;;;;;;;7.97;6.97;;;21.20;99.90;;;;;;5023916;28;20442;-68
2021/09/24 11:52:39;;;;;;;8.43;6.60;;;21.40;99.90;;;;;;5026792;28;20453;-66
2021/09/24 11:55:21;;;;;;;6.70;6.03;;;21.80;99.90;;;;;;5025637;28;20474;-65
2021/09/24 11:57:57;;;;;;;6.60;5.90;;;22.80;99.90;;;;;;5026030;28;20941;-69
2021/09/24 12:00:25;;;;;;;6.40;5.77;;;23.90;99.90;;;;;;5024726;28;20789;-70
2021/09/24 12:03:15;;;;;;;8.30;5.87;;;24.70;99.90;;;;;;5023736;28;20427;-69
2021/09/24 12:06:05;;;;;;;6.37;5.67;;;25.20;99.90;;;;;;5022204;28;20459;-68
2021/09/24 12:08:34;;;;;;;6.63;6.00;;;25.80;99.90;;;;;;5007335;28;20532;-67
2021/09/24 12:11:03;;;;;;;10.87;6.43;;;26.20;99.90;;;;;;5024771;28;20522;-67
2021/09/24 12:13:44;;;;;;;6.77;6.17;;;26.10;99.90;;;;;;5007247;28;20450;-67
2021/09/24 12:16:16;;;;;;;6.53;5.93;;;26.40;99.90;;;;;;5021338;28;20438;-68
2021/09/24 12:19:03;;;;;;;5.80;4.87;;;25.80;99.90;;;;;;5025373;28;20438;-68
2021/09/24 12:21:51;;;;;;;6.63;5.90;;;26.80;99.90;;;;;;5024864;28;20444;-67
2021/09/24 12:24:21;;;;;;;7.63;6.97;;;28.20;99.90;;;;;;5022438;28;20580;-66
2021/09/24 12:27:03;;;;;;;6.70;5.80;;;29.30;99.90;;;;;;5026064;28;20467;-64
2021/09/24 12:29:30;;;;;;;6.30;5.20;;;28.90;99.90;;;;;;5024123;28;20435;-64
2021/09/24 12:32:07;;;;;;;7.17;5.37;;;29.90;99.30;;;;;;5022495;28;21261;-66
2021/09/24 12:35:06;;;;;;;6.93;6.33;;;29.60;97.80;;;;;;4989356;28;20490;-65
2021/09/24 12:37:36;;;;;;;6.83;6.23;;;28.90;97.10;;;;;;5019886;28;20452;-65
2021/09/24 12:40:08;;;;;;;5.97;5.47;;;28.80;96.00;;;;;;5022591;28;20854;-65
2021/09/24 12:42:39;;;;;;;6.57;5.97;;;28.60;95.90;;;;;;5019910;28;20447;-65
2021/09/24 12:45:09;;;;;;;7.80;6.37;;;27.90;96.60;;;;;;5024042;28;20534;-65
2021/09/24 12:47:38;;;;;;;7.07;6.07;;;28.40;97.00;;;;;;5007256;28;21063;-65